createdAt,value
2024-03-02T00:00:42.628Z,5.20
2024-03-02T00:03:15.586Z,5.09
2024-03-02T00:05:43.098Z,5.25
2024-03-02T00:08:10.534Z,5.49
2024-03-02T00:10:41.479Z,5.40
2024-03-02T00:13:13.132Z,5.21
2024-03-02T00:15:48.420Z,5.03
2024-03-02T00:18:19.748Z,5.00
2024-03-02T00:20:47.196Z,5.28
2024-03-02T00:23:18.367Z,5.35
2024-03-02T00:25:48.143Z,5.18
2024-03-02T00:28:36.773Z,5.01
2024-03-02T00:31:09.183Z,4.89
2024-03-02T00:33:38.570Z,5.20
2024-03-02T00:36:06.483Z,5.32
2024-03-02T00:38:34.790Z,5.15
2024-03-02T00:41:08.715Z,4.95
2024-03-02T00:43:53.515Z,4.95
2024-03-02T00:46:20.990Z,5.27
2024-03-02T00:48:59.307Z,5.24
2024-03-02T00:51:28.063Z,5.05
2024-03-02T00:53:58.997Z,4.88
2024-03-02T00:56:27.414Z,4.77
2024-03-02T00:58:54.951Z,4.98
2024-03-02T01:01:22.760Z,5.26
2024-03-02T01:03:50.714Z,5.24
2024-03-02T01:06:18.439Z,5.06
2024-03-02T01:08:46.245Z,4.88
2024-03-02T01:11:13.754Z,4.73
2024-03-02T01:13:41.217Z,4.80
2024-03-02T01:16:08.675Z,4.92
2024-03-02T01:18:36.085Z,4.85
2024-03-02T01:21:04.664Z,4.70
2024-03-02T01:23:32.085Z,4.59
2024-03-02T01:25:59.563Z,4.55
2024-03-02T01:28:26.939Z,4.56
2024-03-02T01:30:54.422Z,4.56
2024-03-02T01:33:22.595Z,4.53
2024-03-02T01:35:50.188Z,4.49
2024-03-02T01:38:17.950Z,4.49
2024-03-02T01:40:48.135Z,4.43
2024-03-02T01:43:15.484Z,4.37
2024-03-02T01:45:43.027Z,4.32
2024-03-02T01:48:10.591Z,4.27
2024-03-02T01:50:38.217Z,4.21
2024-03-02T01:53:05.590Z,4.17
2024-03-02T01:55:34.382Z,4.15
2024-03-02T01:58:01.865Z,4.13
2024-03-02T02:00:29.616Z,4.13
2024-03-02T02:02:57.128Z,4.10
2024-03-02T02:05:24.592Z,4.07
2024-03-02T02:07:52.037Z,4.06
2024-03-02T02:10:19.456Z,4.05
2024-03-02T02:12:46.880Z,4.03
2024-03-02T02:15:30.742Z,3.99
2024-03-02T02:17:59.238Z,3.93
2024-03-02T02:20:27.082Z,3.90
2024-03-02T02:22:58.196Z,3.87
2024-03-02T02:25:25.680Z,3.82
2024-03-02T02:27:53.574Z,3.75
2024-03-02T02:30:22.543Z,3.71
2024-03-02T02:32:50.291Z,3.66
2024-03-02T02:35:17.786Z,3.61
2024-03-02T02:37:46.464Z,3.56
2024-03-02T02:40:14.746Z,3.50
2024-03-02T02:42:42.185Z,3.47
2024-03-02T02:45:09.725Z,3.46
2024-03-02T02:47:37.158Z,3.40
2024-03-02T02:50:05.634Z,3.38
2024-03-02T02:52:37.931Z,3.38
2024-03-02T02:55:06.606Z,3.41
2024-03-02T02:57:39.104Z,3.42
2024-03-02T03:00:11.654Z,3.43
2024-03-02T03:02:40.045Z,3.49
2024-03-02T03:05:08.282Z,3.49
2024-03-02T03:07:36.050Z,3.48
2024-03-02T03:10:04.935Z,3.47
2024-03-02T03:12:35.233Z,3.45
2024-03-02T03:15:04.193Z,3.48
2024-03-02T03:17:31.704Z,3.45
2024-03-02T03:19:59.072Z,3.46
2024-03-02T03:22:26.522Z,3.44
2024-03-02T03:27:47.357Z,2.99
2024-03-02T03:30:15.564Z,3.17
2024-03-02T03:32:42.932Z,3.27
2024-03-02T03:35:10.452Z,3.38
2024-03-02T03:37:37.984Z,3.38
2024-03-02T03:40:12.617Z,3.21
2024-03-02T03:42:40.808Z,3.04
2024-03-02T03:45:09.039Z,2.86
2024-03-02T03:47:36.611Z,2.68
2024-03-02T03:50:08.147Z,2.47
2024-03-02T03:52:35.649Z,2.39
2024-03-02T03:55:03.119Z,2.34
2024-03-02T03:57:30.551Z,2.34
2024-03-02T03:59:58.033Z,2.43
2024-03-02T04:02:26.086Z,2.41
2024-03-02T04:04:53.438Z,2.33
2024-03-02T04:07:20.791Z,2.24
2024-03-02T04:09:48.253Z,2.36
2024-03-02T04:12:15.968Z,2.45
2024-03-02T04:14:44.016Z,2.57
2024-03-02T04:17:11.632Z,2.61
2024-03-02T04:19:39.106Z,2.69
2024-03-02T04:22:15.177Z,2.75
2024-03-02T04:24:46.662Z,2.84
2024-03-02T04:27:14.076Z,2.91
2024-03-02T04:29:41.489Z,2.97
2024-03-02T04:32:09.002Z,3.01
2024-03-02T04:34:36.548Z,3.07
2024-03-02T04:37:03.987Z,3.11
2024-03-02T04:39:31.581Z,3.06
2024-03-02T04:41:59.691Z,2.98
2024-03-02T04:44:27.300Z,2.94
2024-03-02T04:46:54.678Z,2.94
2024-03-02T04:49:22.224Z,2.93
2024-03-02T04:51:49.780Z,2.85
2024-03-02T04:54:17.519Z,2.81
2024-03-02T04:56:46.148Z,2.79
2024-03-02T04:59:13.708Z,2.81
2024-03-02T05:01:41.139Z,2.83
2024-03-02T05:04:08.805Z,2.85
2024-03-02T05:06:36.329Z,2.74
2024-03-02T05:09:03.823Z,2.75
2024-03-02T05:11:40.179Z,2.80
2024-03-02T05:14:07.959Z,2.95
2024-03-02T05:16:36.539Z,3.00
2024-03-02T05:19:03.984Z,2.98
2024-03-02T05:21:31.704Z,3.25
2024-03-02T05:23:59.231Z,3.38
2024-03-02T05:26:26.781Z,3.26
2024-03-02T05:28:54.418Z,3.14
2024-03-02T05:31:21.872Z,3.20
2024-03-02T05:33:50.330Z,3.41
2024-03-02T05:36:19.619Z,3.41
2024-03-02T05:38:47.041Z,3.25
2024-03-02T05:41:14.391Z,3.17
2024-03-02T05:43:41.968Z,3.37
2024-03-02T05:46:09.422Z,3.56
2024-03-02T05:48:36.872Z,3.54
2024-03-02T05:51:04.829Z,3.44
2024-03-02T05:53:32.551Z,3.41
2024-03-02T05:56:00.885Z,3.64
2024-03-02T05:58:48.828Z,3.88
2024-03-02T06:01:16.376Z,3.83
2024-03-02T06:03:44.153Z,3.74
2024-03-02T06:06:11.887Z,3.92
2024-03-02T06:08:39.409Z,4.09
2024-03-02T06:11:06.813Z,4.02
2024-03-02T06:13:34.315Z,3.91
2024-03-02T06:16:01.907Z,3.94
2024-03-02T06:18:29.482Z,4.07
2024-03-02T06:20:56.977Z,4.24
2024-03-02T06:23:24.339Z,4.32
2024-03-02T06:25:51.683Z,4.29
2024-03-02T06:28:19.186Z,4.29
2024-03-02T06:30:46.688Z,4.56
2024-03-02T06:33:14.321Z,4.80
2024-03-02T06:35:42.361Z,4.76
2024-03-02T06:38:09.797Z,4.72
2024-03-02T06:40:40.895Z,4.90
2024-03-02T06:43:08.303Z,5.14
2024-03-02T06:45:36.001Z,5.10
2024-03-02T06:48:03.716Z,4.97
2024-03-02T06:50:31.280Z,5.02
2024-03-02T06:52:58.751Z,5.32
2024-03-02T06:55:26.286Z,5.49
2024-03-02T06:57:53.852Z,5.43
2024-03-02T07:00:24.207Z,5.36
2024-03-02T07:02:51.777Z,5.49
2024-03-02T07:05:19.261Z,5.70
2024-03-02T07:07:46.612Z,5.66
2024-03-02T07:10:14.016Z,5.45
2024-03-02T07:12:41.405Z,5.43
2024-03-02T07:15:19.879Z,5.65
2024-03-02T07:17:47.437Z,5.77
2024-03-02T07:20:14.937Z,5.55
2024-03-02T07:22:43.984Z,5.44
2024-03-02T07:27:45.149Z,5.84
2024-03-02T07:30:15.444Z,5.73
2024-03-02T07:32:47.068Z,5.61
2024-03-02T07:35:15.362Z,5.83
2024-03-02T07:37:43.510Z,6.12
2024-03-02T07:40:15.408Z,6.02
2024-03-02T07:42:42.953Z,5.75
2024-03-02T07:45:10.966Z,5.61
2024-03-02T07:47:38.477Z,5.78
2024-03-02T07:50:10.423Z,5.72
2024-03-02T07:52:37.820Z,5.62
2024-03-02T07:55:06.336Z,5.62
2024-03-02T07:57:33.873Z,5.81
2024-03-02T08:00:01.260Z,6.14
2024-03-02T08:02:28.645Z,6.11
2024-03-02T08:04:55.997Z,5.96
2024-03-02T08:07:23.480Z,5.94
2024-03-02T08:09:50.845Z,6.02
2024-03-02T08:12:19.708Z,6.31
2024-03-02T08:14:47.292Z,6.38
2024-03-02T08:17:14.723Z,6.29
2024-03-02T08:19:42.891Z,6.21
2024-03-02T08:22:10.429Z,6.19
2024-03-02T08:24:37.871Z,6.25
2024-03-02T08:27:05.494Z,6.30
2024-03-02T08:29:33.013Z,6.27
2024-03-02T08:32:00.376Z,6.29
2024-03-02T08:34:27.775Z,6.35
2024-03-02T08:36:55.687Z,6.44
2024-03-02T08:39:23.542Z,6.56
2024-03-02T08:41:51.471Z,6.68
2024-03-02T08:44:19.015Z,6.77
2024-03-02T08:46:46.397Z,6.83
2024-03-02T08:49:14.182Z,6.91
2024-03-02T08:51:41.684Z,7.00
2024-03-02T08:54:09.800Z,7.06
2024-03-02T08:56:37.420Z,7.11
2024-03-02T08:59:04.900Z,7.15
2024-03-02T09:01:32.526Z,7.17
2024-03-02T09:04:00.187Z,7.19
2024-03-02T09:06:27.732Z,7.25
2024-03-02T09:08:55.181Z,7.33
2024-03-02T09:11:22.624Z,7.40
2024-03-02T09:13:50.020Z,7.51
2024-03-02T09:16:17.382Z,7.62
2024-03-02T09:18:44.745Z,7.68
2024-03-02T09:21:12.230Z,7.75
2024-03-02T09:23:41.215Z,7.80
2024-03-02T09:26:08.554Z,7.84
2024-03-02T09:28:36.026Z,7.87
2024-03-02T09:31:03.670Z,7.88
2024-03-02T09:33:31.543Z,7.88
2024-03-02T09:35:59.246Z,7.91
2024-03-02T09:38:26.702Z,7.95
2024-03-02T09:40:54.144Z,7.99
2024-03-02T09:43:21.673Z,8.05
2024-03-02T09:45:49.144Z,8.12
2024-03-02T09:48:19.717Z,8.21
2024-03-02T09:50:47.872Z,8.31
2024-03-02T09:53:15.225Z,8.40
2024-03-02T09:55:45.014Z,8.52
2024-03-02T09:58:12.496Z,8.57
2024-03-02T10:00:40.058Z,8.55
2024-03-02T10:03:13.632Z,8.57
2024-03-02T10:05:41.108Z,8.57
2024-03-02T10:08:08.568Z,8.51
2024-03-02T10:10:45.981Z,8.54
2024-03-02T10:13:14.219Z,8.59
2024-03-02T10:15:42.482Z,8.74
2024-03-02T10:18:14.031Z,8.87
2024-03-02T10:20:41.704Z,9.00
2024-03-02T10:23:16.408Z,8.95
2024-03-02T10:25:51.768Z,8.94
2024-03-02T10:28:25.861Z,8.99
2024-03-02T10:30:54.497Z,8.96
2024-03-02T10:33:22.453Z,8.95
2024-03-02T10:35:51.074Z,8.87
2024-03-02T10:38:18.772Z,8.80
2024-03-02T10:40:52.597Z,8.85
2024-03-02T10:43:20.187Z,8.97
2024-03-02T10:45:49.721Z,9.03
2024-03-02T10:48:17.323Z,8.96
2024-03-02T10:50:44.922Z,9.04
2024-03-02T10:53:12.307Z,9.17
2024-03-02T10:55:40.441Z,9.27
2024-03-02T10:58:08.660Z,9.31
2024-03-02T11:00:36.247Z,9.28
2024-03-02T11:03:07.681Z,9.25
2024-03-02T11:05:37.588Z,9.26
2024-03-02T11:08:09.468Z,9.14
2024-03-02T11:10:49.756Z,8.86
2024-03-02T11:13:17.364Z,8.65
2024-03-02T11:15:45.303Z,8.74
2024-03-02T11:18:13.105Z,8.88
2024-03-02T11:20:41.195Z,8.90
2024-03-02T11:23:09.569Z,9.00
2024-03-02T11:25:37.325Z,9.18
2024-03-02T11:28:11.253Z,9.33
2024-03-02T11:30:39.439Z,9.36
2024-03-02T11:33:12.307Z,9.29
2024-03-02T11:35:46.789Z,9.17
2024-03-02T11:38:14.388Z,9.17
2024-03-02T11:40:42.031Z,9.19
2024-03-02T11:43:09.629Z,9.09
2024-03-02T11:45:41.196Z,9.12
2024-03-02T11:48:09.767Z,9.20
2024-03-02T11:50:41.373Z,9.17
2024-03-02T11:53:10.607Z,9.10
2024-03-02T11:55:38.549Z,9.03
2024-03-02T11:58:06.327Z,8.92
2024-03-02T12:00:34.123Z,8.81
2024-03-02T12:03:03.013Z,8.77
2024-03-02T12:05:30.549Z,8.80
2024-03-02T12:07:58.952Z,8.86
2024-03-02T12:10:27.043Z,8.92
2024-03-02T12:13:12.870Z,9.01
2024-03-02T12:15:41.503Z,9.13
2024-03-02T12:18:09.220Z,9.25
2024-03-02T12:20:36.879Z,9.34
2024-03-02T12:23:05.662Z,9.39
2024-03-02T12:25:34.660Z,9.37
2024-03-02T12:28:03.064Z,9.35
2024-03-02T12:30:31.849Z,9.34
2024-03-02T12:33:00.213Z,9.33
2024-03-02T12:35:27.867Z,9.38
2024-03-02T12:37:55.401Z,9.43
2024-03-02T12:40:24.439Z,9.39
2024-03-02T12:42:52.893Z,9.44
2024-03-02T12:45:27.501Z,9.48
2024-03-02T12:47:55.233Z,9.37
2024-03-02T12:50:22.944Z,9.21
2024-03-02T12:52:54.472Z,8.82
2024-03-02T12:55:23.518Z,8.59
2024-03-02T12:57:54.859Z,8.58
2024-03-02T13:00:23.579Z,8.71
2024-03-02T13:02:52.822Z,8.73
2024-03-02T13:05:21.392Z,8.64
2024-03-02T13:07:50.029Z,8.66
2024-03-02T13:10:18.307Z,8.61
2024-03-02T13:12:45.886Z,8.50
2024-03-02T13:15:16.538Z,8.42
2024-03-02T13:17:47.470Z,8.44
2024-03-02T13:20:15.911Z,8.52
2024-03-02T13:22:43.770Z,8.59
2024-03-02T13:25:14.122Z,8.65
2024-03-02T13:27:41.703Z,8.69
2024-03-02T13:30:10.188Z,8.76
2024-03-02T13:32:38.030Z,8.82
2024-03-02T13:35:06.393Z,8.91
2024-03-02T13:37:33.921Z,9.00
2024-03-02T13:40:01.544Z,9.08
2024-03-02T13:42:29.319Z,9.11
2024-03-02T13:44:57.023Z,9.12
2024-03-02T13:47:24.465Z,9.12
2024-03-02T13:49:51.902Z,9.09
2024-03-02T13:52:19.280Z,9.05
2024-03-02T13:54:47.941Z,8.95
2024-03-02T13:57:15.696Z,8.78
2024-03-02T13:59:44.252Z,8.58
2024-03-02T14:02:12.009Z,8.45
2024-03-02T14:04:40.128Z,8.40
2024-03-02T14:07:09.009Z,8.38
2024-03-02T14:09:37.639Z,8.36
2024-03-02T14:12:06.881Z,8.36
2024-03-02T14:14:34.594Z,8.35
2024-03-02T14:17:05.233Z,8.34
2024-03-02T14:19:33.066Z,8.30
2024-03-02T14:22:00.825Z,8.28
2024-03-02T14:24:30.819Z,8.29
2024-03-02T14:27:10.915Z,8.31
2024-03-02T14:29:47.858Z,8.39
2024-03-02T14:32:15.376Z,8.48
2024-03-02T14:34:42.908Z,8.47
2024-03-02T14:37:10.554Z,8.49
2024-03-02T14:39:38.059Z,8.55
2024-03-02T14:42:05.946Z,8.56
2024-03-02T14:44:33.709Z,8.57
2024-03-02T14:47:05.539Z,8.57
2024-03-02T14:49:35.103Z,8.59
2024-03-02T14:52:02.721Z,8.57
2024-03-02T14:54:30.576Z,8.59
2024-03-02T14:56:58.508Z,8.61
2024-03-02T14:59:25.922Z,8.59
2024-03-02T15:01:53.486Z,8.58
2024-03-02T15:04:22.417Z,8.52
2024-03-02T15:06:50.220Z,8.44
2024-03-02T15:09:37.232Z,8.20
2024-03-02T15:12:05.178Z,7.89
2024-03-02T15:14:32.729Z,7.76
2024-03-02T15:17:00.550Z,7.68
2024-03-02T15:19:28.052Z,7.58
2024-03-02T15:21:55.658Z,7.53
2024-03-02T15:24:23.211Z,7.36
2024-03-02T15:26:50.853Z,7.17
2024-03-02T15:29:18.292Z,7.08
2024-03-02T15:31:45.777Z,6.99
2024-03-02T15:34:13.357Z,6.92
2024-03-02T15:36:40.941Z,6.82
2024-03-02T15:39:10.251Z,6.79
2024-03-02T15:41:37.941Z,6.75
2024-03-02T15:45:48.083Z,6.49
2024-03-02T15:48:15.556Z,6.71
2024-03-02T15:50:42.998Z,6.76
2024-03-02T15:53:10.698Z,6.76
2024-03-02T15:55:38.790Z,6.72
2024-03-02T15:58:07.252Z,6.64
2024-03-02T16:00:36.691Z,6.66
2024-03-02T16:03:04.743Z,6.63
2024-03-02T16:05:32.168Z,6.60
2024-03-02T16:08:00.263Z,6.56
2024-03-02T16:10:28.181Z,6.47
2024-03-02T16:12:57.103Z,6.44
2024-03-02T16:15:24.747Z,6.53
2024-03-02T16:17:52.312Z,6.57
2024-03-02T16:20:19.935Z,6.58
2024-03-02T16:22:47.460Z,6.78
2024-03-02T16:25:15.821Z,6.93
2024-03-02T16:27:44.799Z,6.81
2024-03-02T16:30:13.722Z,6.70
2024-03-02T16:32:41.217Z,6.61
2024-03-02T16:35:08.869Z,6.54
2024-03-02T16:37:36.428Z,6.47
2024-03-02T16:40:04.778Z,6.45
2024-03-02T16:42:32.293Z,6.64
2024-03-02T16:45:00.011Z,6.82
2024-03-02T16:47:27.781Z,6.71
2024-03-02T16:49:58.331Z,6.59
2024-03-02T16:52:29.312Z,6.52
2024-03-02T16:54:58.539Z,6.46
2024-03-02T16:57:27.366Z,6.46
2024-03-02T16:59:54.892Z,6.61
2024-03-02T17:02:22.339Z,6.54
2024-03-02T17:04:49.805Z,6.41
2024-03-02T17:07:17.630Z,6.31
2024-03-02T17:09:45.412Z,6.18
2024-03-02T17:12:13.255Z,6.30
2024-03-02T17:14:40.873Z,6.48
2024-03-02T17:17:08.250Z,6.31
2024-03-02T17:19:35.638Z,6.11
2024-03-02T17:22:03.274Z,6.04
2024-03-02T17:24:30.893Z,6.14
2024-03-02T17:26:59.699Z,6.37
2024-03-02T17:29:27.397Z,6.36
2024-03-02T17:31:57.155Z,6.25
2024-03-02T17:34:25.131Z,6.10
2024-03-02T17:36:52.698Z,6.02
2024-03-02T17:39:20.375Z,6.08
2024-03-02T17:41:47.857Z,6.27
2024-03-02T17:44:16.526Z,6.23
2024-03-02T17:46:44.496Z,6.16
2024-03-02T17:49:12.109Z,6.12
2024-03-02T17:51:39.880Z,6.27
2024-03-02T17:54:07.487Z,6.49
2024-03-02T17:56:34.904Z,6.42
2024-03-02T17:59:02.496Z,6.29
2024-03-02T18:01:30.160Z,6.15
2024-03-02T18:03:57.695Z,6.12
2024-03-02T18:06:25.380Z,6.30
2024-03-02T18:08:52.982Z,6.43
2024-03-02T18:11:20.605Z,6.31
2024-03-02T18:13:48.371Z,6.25
2024-03-02T18:16:16.577Z,6.23
2024-03-02T18:18:44.286Z,6.36
2024-03-02T18:21:12.612Z,6.62
2024-03-02T18:23:40.000Z,6.64
2024-03-02T18:26:07.509Z,6.43
2024-03-02T18:28:35.841Z,6.31
2024-03-02T18:31:05.383Z,6.35
2024-03-02T18:33:33.603Z,6.65
2024-03-02T18:36:01.570Z,6.59
2024-03-02T18:38:29.020Z,6.40
2024-03-02T18:40:56.456Z,6.20
2024-03-02T18:43:23.911Z,6.32
2024-03-02T18:45:51.420Z,6.50
2024-03-02T18:48:19.014Z,6.39
2024-03-02T18:50:46.564Z,6.24
2024-03-02T18:53:14.697Z,6.21
2024-03-02T18:55:42.184Z,6.42
2024-03-02T18:58:10.061Z,6.60
2024-03-02T19:00:37.982Z,6.50
2024-03-02T19:03:07.240Z,6.31
2024-03-02T19:05:36.412Z,6.24
2024-03-02T19:08:03.935Z,6.41
2024-03-02T19:10:31.421Z,6.42
2024-03-02T19:12:59.191Z,6.18
2024-03-02T19:15:26.618Z,5.97
2024-03-02T19:17:54.503Z,6.00
2024-03-02T19:20:23.163Z,5.98
2024-03-02T19:22:52.543Z,5.91
2024-03-02T19:25:21.678Z,5.65
2024-03-02T19:27:49.223Z,5.72
2024-03-02T19:30:16.635Z,5.94
2024-03-02T19:32:44.306Z,5.91
2024-03-02T19:35:13.241Z,5.58
2024-03-02T19:37:42.351Z,5.35
2024-03-02T19:40:13.685Z,5.29
2024-03-02T19:42:41.617Z,5.22
2024-03-02T19:45:09.896Z,5.03
2024-03-02T19:47:37.458Z,4.91
2024-03-02T19:50:05.962Z,4.87
2024-03-02T19:52:33.763Z,4.86
2024-03-02T19:55:02.934Z,4.91
2024-03-02T19:57:31.032Z,4.91
2024-03-02T19:59:58.588Z,4.89
2024-03-02T20:02:28.413Z,4.88
2024-03-02T20:04:56.249Z,4.91
2024-03-02T20:07:23.786Z,4.94
2024-03-02T20:09:51.929Z,4.94
2024-03-02T20:12:19.881Z,4.91
2024-03-02T20:14:47.372Z,4.89
2024-03-02T20:17:16.007Z,4.81
2024-03-02T20:19:43.411Z,4.70
2024-03-02T20:22:10.947Z,4.67
2024-03-02T20:24:38.915Z,4.75
2024-03-02T20:27:06.471Z,4.79
2024-03-02T20:29:34.054Z,4.77
2024-03-02T20:32:02.010Z,4.70
2024-03-02T20:34:29.454Z,4.70
2024-03-02T20:36:57.815Z,4.70
2024-03-02T20:39:25.397Z,4.69
2024-03-02T20:41:52.937Z,4.67
2024-03-02T20:44:23.522Z,4.69
2024-03-02T20:46:54.076Z,4.73
2024-03-02T20:49:21.746Z,4.72
2024-03-02T20:51:49.436Z,4.75
2024-03-02T20:54:17.109Z,4.77
2024-03-02T20:56:44.694Z,4.80
2024-03-02T20:59:12.210Z,4.79
2024-03-02T21:01:39.700Z,4.81
2024-03-02T21:04:07.349Z,4.79
2024-03-02T21:06:34.868Z,4.77
2024-03-02T21:09:02.613Z,4.75
2024-03-02T21:11:30.165Z,4.73
2024-03-02T21:13:57.747Z,4.72
2024-03-02T21:16:25.178Z,4.71
2024-03-02T21:18:55.111Z,4.67
2024-03-02T21:21:22.733Z,4.66
2024-03-02T21:23:50.117Z,4.66
2024-03-02T21:26:17.631Z,4.65
2024-03-02T21:28:45.046Z,4.64
2024-03-02T21:31:18.559Z,4.62
2024-03-02T21:33:46.453Z,4.60
2024-03-02T21:36:13.982Z,4.58
2024-03-02T21:38:41.402Z,4.56
2024-03-02T21:41:08.812Z,4.57
2024-03-02T21:43:36.956Z,4.61
2024-03-02T21:46:04.993Z,4.61
2024-03-02T21:48:32.533Z,4.61
2024-03-02T21:51:00.243Z,4.60
2024-03-02T21:53:27.611Z,4.61
2024-03-02T21:55:55.428Z,4.65
2024-03-02T21:58:22.847Z,4.63
2024-03-02T22:00:50.337Z,4.57
2024-03-02T22:03:17.822Z,4.52
2024-03-02T22:05:45.142Z,4.48
2024-03-02T22:08:12.640Z,4.47
2024-03-02T22:10:39.987Z,4.43
2024-03-02T22:13:07.418Z,4.45
2024-03-02T22:15:35.005Z,4.44
2024-03-02T22:18:04.539Z,4.39
2024-03-02T22:20:32.165Z,4.34
2024-03-02T22:22:59.598Z,4.32
2024-03-02T22:25:26.956Z,4.30
2024-03-02T22:27:57.228Z,4.28
2024-03-02T22:30:24.778Z,4.24
2024-03-02T22:32:52.371Z,4.25
2024-03-02T22:35:23.137Z,4.24
2024-03-02T22:37:51.610Z,4.21
2024-03-02T22:40:19.189Z,4.15
2024-03-02T22:42:46.767Z,4.10
2024-03-02T22:45:14.776Z,4.07
2024-03-02T22:47:42.166Z,4.05
2024-03-02T22:50:09.850Z,4.05
2024-03-02T22:52:37.300Z,4.04
2024-03-02T22:55:05.490Z,4.02
2024-03-02T22:57:32.947Z,3.98
2024-03-02T23:00:00.365Z,3.96
2024-03-02T23:02:27.779Z,3.92
2024-03-02T23:04:55.209Z,3.89
2024-03-02T23:07:24.085Z,3.87
2024-03-02T23:09:51.777Z,3.81
2024-03-02T23:12:19.473Z,3.76
2024-03-02T23:14:46.917Z,3.71
2024-03-02T23:17:14.248Z,3.64
2024-03-02T23:19:43.023Z,3.65
2024-03-02T23:22:11.627Z,3.60
2024-03-02T23:24:39.137Z,3.53
2024-03-02T23:27:06.744Z,3.49
2024-03-02T23:29:34.292Z,3.41
2024-03-02T23:32:01.658Z,3.34
2024-03-02T23:34:29.410Z,3.32
2024-03-02T23:36:56.907Z,3.28
2024-03-02T23:39:43.088Z,3.31
2024-03-02T23:42:10.508Z,3.35
2024-03-02T23:44:37.896Z,3.35
2024-03-02T23:47:07.134Z,3.28
2024-03-02T23:49:34.767Z,3.20
2024-03-02T23:52:02.316Z,3.17
2024-03-02T23:54:29.873Z,3.16
2024-03-02T23:56:57.279Z,3.15
2024-03-02T23:59:24.684Z,3.20
